Time;durP1;ratioP1;P1;durP2;ratioP2;P2;SDS_P1;SDS_P2;PMS_P1;PMS_P2;Temp;Humidity;BMP_temperature;BMP_pressure;BME280_temperature;BME280_humidity;BME280_pressure;Samples;Min_cycle;Max_cycle;Signal;HPM_P1;HPM_P2
2023/09/24 00:00:58;;;;;;;;;27.75;27.00;;;;;11.89;100.00;102195.81;5099678;27;44728;-76
2023/09/24 00:03:25;;;;;;;;;36.75;32.25;;;;;11.79;100.00;102181.97;5104362;27;45570;-76
2023/09/24 00:05:51;;;;;;;;;33.50;30.50;;;;;11.85;100.00;102200.34;5103139;27;45285;-76
2023/09/24 00:08:17;;;;;;;;;25.50;25.50;;;;;11.77;100.00;102183.81;5100061;27;45273;-76
2023/09/24 00:10:47;;;;;;;;;31.50;27.75;;;;;11.79;100.00;102195.25;5104972;27;45475;-76
2023/09/24 00:13:13;;;;;;;;;28.50;27.50;;;;;11.67;100.00;102174.38;5084758;27;47012;-76
2023/09/24 00:15:38;;;;;;;;;29.25;29.25;;;;;11.78;100.00;102197.94;5105153;27;45674;-75
2023/09/24 00:18:03;;;;;;;;;32.75;31.25;;;;;11.68;100.00;102175.25;5102826;27;48067;-75
2023/09/24 00:20:30;;;;;;;;;25.00;24.00;;;;;11.72;100.00;102195.47;5089771;27;45501;-76
2023/09/24 00:22:55;;;;;;;;;31.25;29.50;;;;;11.72;100.00;102204.28;5086527;27;45224;-76
2023/09/24 00:25:21;;;;;;;;;41.25;32.50;;;;;11.60;100.00;102196.66;5097414;27;45477;-76
2023/09/24 00:27:46;;;;;;;;;32.25;31.00;;;;;11.69;100.00;102209.63;5087736;27;45681;-76
2023/09/24 00:30:13;;;;;;;;;37.00;32.25;;;;;11.69;100.00;102214.06;5111367;27;45479;-75
2023/09/24 00:32:38;;;;;;;;;34.00;31.50;;;;;11.56;100.00;102202.97;5096069;27;47375;-76
2023/09/24 00:35:05;;;;;;;;;33.75;32.00;;;;;11.61;100.00;102210.78;5102197;27;45493;-76
2023/09/24 00:37:32;;;;;;;;;31.75;28.00;;;;;11.60;100.00;102207.25;5089067;27;45421;-76
2023/09/24 00:39:58;;;;;;;;;27.75;26.25;;;;;11.62;100.00;102221.31;5092425;27;45359;-76
2023/09/24 00:42:27;;;;;;;;;30.25;28.50;;;;;11.56;100.00;102216.22;5104096;27;45337;-76
2023/09/24 00:44:52;;;;;;;;;32.00;28.50;;;;;11.58;100.00;102226.78;5105762;27;45290;-76
2023/09/24 00:47:18;;;;;;;;;24.50;23.50;;;;;11.56;100.00;102213.56;5090528;27;50174;-77
2023/09/24 00:49:43;;;;;;;;;29.25;26.75;;;;;11.52;100.00;102231.31;5096505;27;45276;-76
2023/09/24 00:52:10;;;;;;;;;29.75;26.50;;;;;11.55;100.00;102234.81;5097476;27;47578;-76
2023/09/24 00:54:37;;;;;;;;;35.00;29.00;;;;;11.52;100.00;102234.91;5102970;27;45456;-76
2023/09/24 00:57:02;;;;;;;;;26.50;26.25;;;;;11.45;100.00;102219.16;5110805;27;45384;-76
2023/09/24 00:59:28;;;;;;;;;34.50;29.50;;;;;11.48;100.00;102231.47;5104469;27;45402;-76
2023/09/24 01:01:54;;;;;;;;;27.75;25.00;;;;;11.32;100.00;102204.50;5102136;27;45914;-76
2023/09/24 01:04:20;;;;;;;;;31.75;25.00;;;;;11.43;100.00;102228.94;5103487;27;45418;-76
2023/09/24 01:06:45;;;;;;;;;26.75;25.00;;;;;11.40;100.00;102223.72;5096682;27;45546;-75
2023/09/24 01:09:12;;;;;;;;;31.50;26.75;;;;;11.42;100.00;102228.97;5091276;27;45261;-76
2023/09/24 01:11:38;;;;;;;;;25.33;22.67;;;;;11.33;100.00;102215.97;5094276;27;46390;-75
2023/09/24 01:14:05;;;;;;;;;28.00;25.25;;;;;11.34;100.00;102217.72;5105065;27;45347;-76
2023/09/24 01:16:32;;;;;;;;;31.50;29.75;;;;;11.39;100.00;102223.75;5096470;27;45508;-75
2023/09/24 01:18:58;;;;;;;;;27.00;25.25;;;;;11.35;100.00;102217.66;5100838;27;45432;-76
2023/09/24 01:21:26;;;;;;;;;23.25;21.75;;;;;11.33;100.00;102222.16;5097005;27;46254;-76
2023/09/24 01:23:51;;;;;;;;;33.50;25.50;;;;;11.28;100.00;102221.44;5095839;27;45705;-75
2023/09/24 01:26:18;;;;;;;;;32.75;27.50;;;;;11.32;100.00;102227.50;5094843;27;45701;-76
2023/09/24 01:28:44;;;;;;;;;30.25;24.75;;;;;11.26;100.00;102222.34;5093140;27;45299;-76
2023/09/24 01:31:10;;;;;;;;;21.25;21.00;;;;;11.29;100.00;102231.09;5100360;27;45470;-77
2023/09/24 01:33:39;;;;;;;;;24.75;20.75;;;;;11.28;100.00;102232.03;5090286;27;45414;-76
2023/09/24 01:36:10;;;;;;;;;31.00;22.25;;;;;11.26;100.00;102231.16;5104300;27;45334;-75
2023/09/24 01:38:36;;;;;;;;;29.25;27.00;;;;;11.19;100.00;102228.75;5100172;27;45330;-76
2023/09/24 01:41:07;;;;;;;;;26.25;22.00;;;;;11.25;100.00;102231.22;5096912;27;45719;-76
2023/09/24 01:43:33;;;;;;;;;22.25;21.00;;;;;11.24;100.00;102229.47;5091476;27;45303;-76
2023/09/24 01:45:59;;;;;;;;;29.50;29.25;;;;;11.19;100.00;102226.94;5099443;27;45473;-76
2023/09/24 01:48:25;;;;;;;;;26.25;21.75;;;;;11.21;100.00;102233.09;5102973;27;45584;-76
2023/09/24 01:50:52;;;;;;;;;27.00;26.00;;;;;11.19;100.00;102237.53;5080968;27;45398;-76
2023/09/24 01:53:18;;;;;;;;;25.25;25.25;;;;;11.17;100.00;102234.06;5079914;27;45342;-76
2023/09/24 01:55:43;;;;;;;;;20.33;20.00;;;;;11.16;100.00;102232.31;5085566;27;45476;-77
2023/09/24 01:58:09;;;;;;;;;29.25;23.50;;;;;11.14;100.00;102234.16;5108566;27;45318;-77
2023/09/24 02:00:34;;;;;;;;;27.25;23.50;;;;;11.06;100.00;102217.59;5098200;27;45385;-76
2023/09/24 02:03:05;;;;;;;;;30.75;25.00;;;;;11.11;100.00;102228.94;5081064;27;45359;-77
2023/09/24 02:05:32;;;;;;;;;29.00;21.33;;;;;11.07;100.00;102221.13;5098661;27;45473;-77
2023/09/24 02:07:58;;;;;;;;;25.25;22.00;;;;;11.10;100.00;102236.91;5082693;27;45342;-77
2023/09/24 02:10:23;;;;;;;;;29.50;27.50;;;;;10.99;100.00;102221.34;5082998;27;45442;-76
2023/09/24 02:12:48;;;;;;;;;21.00;21.00;;;;;11.02;100.00;102226.56;5095999;27;45347;-77
2023/09/24 02:15:18;;;;;;;;;25.25;20.50;;;;;11.05;100.00;102236.19;5097187;27;45376;-77
2023/09/24 02:17:50;;;;;;;;;24.00;21.50;;;;;11.05;100.00;102238.84;5088781;27;45263;-76
2023/09/24 02:20:24;;;;;;;;;18.67;18.33;;;;;11.03;100.00;102238.00;5090187;27;48108;-77
2023/09/24 02:22:58;;;;;;;;;20.50;20.50;;;;;11.00;100.00;102238.94;5099098;27;45526;-77
2023/09/24 02:25:28;;;;;;;;;26.00;22.00;;;;;10.98;100.00;102246.94;5100161;27;45340;-77
2023/09/24 02:27:54;;;;;;;;;26.75;24.00;;;;;10.97;100.00;102239.03;5087188;27;45268;-75
2023/09/24 02:30:20;;;;;;;;;27.75;23.50;;;;;10.96;100.00;102240.78;5090977;27;46674;-75
2023/09/24 02:32:46;;;;;;;;;25.00;22.33;;;;;10.87;100.00;102222.50;5085324;27;45417;-75
2023/09/24 02:35:13;;;;;;;;;22.00;22.00;;;;;10.76;100.00;102206.06;5088962;27;45397;-75
2023/09/24 02:37:40;;;;;;;;;25.75;24.00;;;;;10.91;100.00;102232.13;5087256;27;45511;-75
2023/09/24 02:40:14;;;;;;;;;27.00;22.75;;;;;10.89;100.00;102233.06;5098144;27;45659;-75
2023/09/24 02:42:40;;;;;;;;;27.75;23.50;;;;;10.86;100.00;102235.78;5094079;27;45782;-75
2023/09/24 02:45:08;;;;;;;;;12.00;9.25;;;;;10.85;100.00;102239.34;5084348;27;45426;-75
2023/09/24 02:47:34;;;;;;;;;22.75;21.75;;;;;10.86;100.00;102239.28;5092151;27;45315;-75
2023/09/24 02:49:59;;;;;;;;;25.25;24.75;;;;;10.83;100.00;102242.00;5091773;27;45538;-75
2023/09/24 02:52:24;;;;;;;;;25.00;22.25;;;;;10.75;100.00;102230.78;5099825;27;45396;-75
2023/09/24 02:54:50;;;;;;;;;25.00;25.00;;;;;10.80;100.00;102238.56;5099062;27;47538;-75
2023/09/24 02:57:15;;;;;;;;;20.33;19.67;;;;;10.66;100.00;102222.19;5084236;27;45303;-75
2023/09/24 02:59:41;;;;;;;;;22.75;19.50;;;;;10.68;100.00;102234.47;5091654;27;47160;-75
2023/09/24 03:02:06;;;;;;;;;22.67;18.67;;;;;10.78;100.00;102254.50;5092948;27;45366;-75
2023/09/24 03:04:32;;;;;;;;;20.00;20.00;;;;;10.77;100.00;102251.88;5093091;27;45526;-75
2023/09/24 03:06:57;;;;;;;;;22.00;20.33;;;;;10.68;100.00;102237.13;5093746;27;45564;-75
2023/09/24 03:09:23;;;;;;;;;24.75;23.00;;;;;10.74;100.00;102244.91;5092047;27;45362;-75
2023/09/24 03:11:49;;;;;;;;;23.00;20.67;;;;;10.64;100.00;102222.22;5086211;27;45536;-75
2023/09/24 03:14:14;;;;;;;;;30.25;25.25;;;;;10.72;100.00;102233.50;5095174;27;45437;-76
2023/09/24 03:16:39;;;;;;;;;20.67;19.00;;;;;10.67;100.00;102234.50;5099136;27;45454;-75
2023/09/24 03:19:04;;;;;;;;;29.25;19.50;;;;;10.68;100.00;102237.13;5096022;27;45464;-75
2023/09/24 03:21:30;;;;;;;;;23.25;21.75;;;;;10.68;100.00;102249.47;5085253;27;50241;-75
2023/09/24 03:23:55;;;;;;;;;24.00;20.00;;;;;10.66;100.00;102243.34;5096020;27;45373;-75
2023/09/24 03:26:20;;;;;;;;;21.25;20.50;;;;;10.63;100.00;102254.91;5085929;27;45432;-75
2023/09/24 03:28:47;;;;;;;;;23.50;22.25;;;;;10.62;100.00;102247.84;5089337;27;47565;-75
2023/09/24 03:31:16;;;;;;;;;20.75;20.25;;;;;10.55;100.00;102248.91;5106681;27;45464;-75
2023/09/24 03:33:42;;;;;;;;;20.75;20.75;;;;;10.58;100.00;102250.59;5085025;27;45612;-75
2023/09/24 03:36:08;;;;;;;;;20.75;19.25;;;;;10.52;100.00;102243.69;5088755;27;45536;-75
2023/09/24 03:38:34;;;;;;;;;34.50;23.75;;;;;10.55;100.00;102255.97;5081513;27;46057;-75
2023/09/24 03:41:01;;;;;;;;;22.75;22.00;;;;;10.58;100.00;102255.88;5086455;27;45630;-75
2023/09/24 03:43:26;;;;;;;;;23.75;21.50;;;;;10.54;100.00;102249.81;5088700;27;45400;-75
2023/09/24 03:45:52;;;;;;;;;27.00;24.25;;;;;10.56;100.00;102245.34;5096084;27;50454;-74
2023/09/24 03:48:17;;;;;;;;;21.00;21.00;;;;;10.54;100.00;102247.16;5082579;27;47194;-74
2023/09/24 03:50:42;;;;;;;;;22.75;18.25;;;;;10.52;100.00;102240.16;5094157;27;45433;-75
2023/09/24 03:53:08;;;;;;;;;23.00;21.00;;;;;10.45;100.00;102236.78;5108961;27;45044;-74
2023/09/24 03:55:35;;;;;;;;;32.50;24.25;;;;;10.51;100.00;102260.44;5099378;27;45857;-75
2023/09/24 03:58:00;;;;;;;;;23.50;20.25;;;;;10.49;100.00;102259.63;5099537;27;45399;-74
2023/09/24 04:00:26;;;;;;;;;24.75;24.00;;;;;10.43;100.00;102250.06;5086297;27;45341;-75
2023/09/24 04:02:51;;;;;;;;;19.00;17.25;;;;;10.46;100.00;102257.06;5097526;27;45342;-75
2023/09/24 04:05:19;;;;;;;;;24.25;23.00;;;;;10.52;100.00;102267.50;5091724;27;45744;-75
2023/09/24 04:07:46;;;;;;;;;23.75;22.75;;;;;10.42;100.00;102247.44;5086362;27;46604;-75
2023/09/24 04:10:14;;;;;;;;;25.75;21.25;;;;;10.49;100.00;102267.56;5084096;27;45286;-75
2023/09/24 04:12:43;;;;;;;;;23.00;21.50;;;;;10.40;100.00;102251.91;5101128;27;45258;-75
2023/09/24 04:15:09;;;;;;;;;24.50;22.00;;;;;10.47;100.00;102261.44;5095100;27;45643;-75
2023/09/24 04:17:36;;;;;;;;;26.25;19.50;;;;;10.48;100.00;102257.00;5087518;27;45369;-75
2023/09/24 04:20:03;;;;;;;;;22.75;21.75;;;;;10.39;100.00;102244.88;5091006;27;45281;-76
2023/09/24 04:22:28;;;;;;;;;25.75;20.25;;;;;10.40;100.00;102252.75;5100420;27;45414;-75
2023/09/24 04:24:54;;;;;;;;;19.00;16.50;;;;;10.38;100.00;102254.59;5101384;27;45360;-75
2023/09/24 04:27:21;;;;;;;;;23.75;21.75;;;;;10.42;100.00;102253.63;5099672;27;45365;-75
2023/09/24 04:29:47;;;;;;;;;29.00;24.75;;;;;10.43;100.00;102263.31;5094359;27;45310;-75
2023/09/24 04:32:12;;;;;;;;;25.50;21.00;;;;;10.43;100.00;102258.00;5091436;27;45512;-75
2023/09/24 04:34:38;;;;;;;;;25.75;20.00;;;;;10.40;100.00;102246.63;5095326;27;45476;-75
2023/09/24 04:37:03;;;;;;;;;25.00;23.25;;;;;10.39;100.00;102258.97;5093251;27;45458;-75
2023/09/24 04:39:28;;;;;;;;;20.25;17.00;;;;;10.31;100.00;102238.88;5098212;27;45521;-75
2023/09/24 04:41:54;;;;;;;;;24.00;21.25;;;;;10.39;100.00;102260.75;5090232;27;45445;-75
2023/09/24 04:44:19;;;;;;;;;23.50;20.00;;;;;10.39;100.00;102260.75;5094667;27;45456;-75
2023/09/24 04:46:44;;;;;;;;;25.00;23.00;;;;;10.32;100.00;102253.84;5099698;27;45403;-75
2023/09/24 04:49:10;;;;;;;;;24.67;19.00;;;;;10.28;100.00;102247.78;5095826;27;45424;-76
2023/09/24 04:51:35;;;;;;;;;21.50;19.75;;;;;10.37;100.00;102257.28;5099232;27;45385;-76
2023/09/24 04:54:02;;;;;;;;;15.50;15.50;;;;;10.21;100.00;102230.31;5098263;27;45772;-77
2023/09/24 04:56:28;;;;;;;;;18.75;17.00;;;;;10.36;100.00;102260.81;5094173;27;45425;-76
2023/09/24 04:58:53;;;;;;;;;24.25;20.75;;;;;10.26;100.00;102244.31;5091956;27;45410;-75
2023/09/24 05:01:18;;;;;;;;;27.50;23.50;;;;;10.31;100.00;102254.75;5100602;27;45535;-75
2023/09/24 05:03:44;;;;;;;;;23.50;20.00;;;;;10.24;100.00;102240.81;5096981;27;45299;-76
2023/09/24 05:06:09;;;;;;;;;20.67;18.67;;;;;10.27;100.00;102246.06;5109177;27;48277;-75
2023/09/24 05:08:34;;;;;;;;;22.67;22.00;;;;;10.30;100.00;102266.25;5096831;27;45503;-76
2023/09/24 05:11:00;;;;;;;;;20.50;18.50;;;;;10.31;100.00;102268.84;5100751;27;45469;-76
2023/09/24 05:13:26;;;;;;;;;27.00;19.75;;;;;10.26;100.00;102251.34;5099913;27;45694;-76
2023/09/24 05:15:54;;;;;;;;;23.00;19.00;;;;;10.24;100.00;102263.75;5092590;27;47142;-77
2023/09/24 05:18:23;;;;;;;;;18.00;17.67;;;;;10.14;100.00;102243.72;5097094;27;45478;-75
2023/09/24 05:20:49;;;;;;;;;20.67;17.33;;;;;10.23;100.00;102259.38;5099585;27;45486;-76
2023/09/24 05:23:14;;;;;;;;;19.00;19.00;;;;;10.26;100.00;102265.44;5098645;27;45357;-76
2023/09/24 05:25:40;;;;;;;;;21.67;20.33;;;;;10.26;100.00;102269.88;5100052;27;46641;-76
2023/09/24 05:28:06;;;;;;;;;20.50;18.00;;;;;10.25;100.00;102274.28;5097204;27;45377;-76
2023/09/24 05:30:31;;;;;;;;;19.67;18.67;;;;;10.25;100.00;102270.75;5087400;27;45348;-76
2023/09/24 05:32:56;;;;;;;;;20.00;17.33;;;;;10.21;100.00;102259.38;5096922;27;46767;-76
2023/09/24 05:35:22;;;;;;;;;19.00;17.33;;;;;10.23;100.00;102267.28;5094208;27;55677;-75
2023/09/24 05:37:47;;;;;;;;;14.00;11.33;;;;;10.17;100.00;102264.78;5095788;27;46012;-75
2023/09/24 05:40:14;;;;;;;;;18.67;16.67;;;;;10.22;100.00;102274.34;5082007;27;45433;-76
2023/09/24 05:42:39;;;;;;;;;21.75;17.50;;;;;10.18;100.00;102262.09;5092856;27;45441;-76
2023/09/24 05:45:05;;;;;;;;;20.33;17.67;;;;;10.13;100.00;102257.78;5095970;27;45557;-76
2023/09/24 05:47:31;;;;;;;;;16.67;15.67;;;;;10.22;100.00;102274.34;5100041;27;45458;-77
2023/09/24 05:49:56;;;;;;;;;25.33;17.33;;;;;10.17;100.00;102270.06;5098549;27;45347;-76
2023/09/24 05:52:21;;;;;;;;;18.00;15.33;;;;;10.22;100.00;102287.56;5098457;27;52794;-75
2023/09/24 05:54:47;;;;;;;;;19.33;17.67;;;;;10.21;100.00;102287.63;5091881;27;57454;-76
2023/09/24 05:57:12;;;;;;;;;19.67;16.00;;;;;10.21;100.00;102283.19;5090866;27;45257;-76
2023/09/24 05:59:37;;;;;;;;;17.00;16.00;;;;;10.19;100.00;102279.72;5099902;27;45665;-76
2023/09/24 06:02:03;;;;;;;;;18.00;14.00;;;;;10.17;100.00;102276.25;5099655;27;45377;-75
2023/09/24 06:04:30;;;;;;;;;19.33;16.00;;;;;10.24;100.00;102290.19;5094933;27;45362;-76
2023/09/24 06:06:55;;;;;;;;;20.67;16.67;;;;;10.12;100.00;102267.50;5096582;27;45556;-76
2023/09/24 06:09:21;;;;;;;;;18.33;16.33;;;;;10.22;100.00;102284.94;5096989;27;45268;-76
2023/09/24 06:11:47;;;;;;;;;16.00;16.00;;;;;10.26;100.00;102283.97;5094403;27;45304;-76
2023/09/24 06:14:12;;;;;;;;;19.00;18.00;;;;;10.27;100.00;102288.34;5093886;27;45562;-77
2023/09/24 06:16:38;;;;;;;;;15.33;15.33;;;;;10.29;100.00;102291.81;5096013;27;45377;-76
2023/09/24 06:19:04;;;;;;;;;12.33;10.33;;;;;10.24;100.00;102292.84;5097566;27;45458;-76
2023/09/24 06:21:30;;;;;;;;;16.67;15.00;;;;;10.31;100.00;102297.94;5096778;27;45438;-76
2023/09/24 06:23:55;;;;;;;;;18.67;16.33;;;;;10.37;100.00;102299.59;5084898;27;45426;-76
2023/09/24 06:26:21;;;;;;;;;13.50;13.50;;;;;10.30;100.00;102293.56;5089891;27;45397;-77
2023/09/24 06:28:47;;;;;;;;;16.00;15.00;;;;;10.43;100.00;102317.97;5104001;27;45357;-77
2023/09/24 06:31:12;;;;;;;;;17.67;16.67;;;;;10.43;100.00;102307.38;5097093;27;45268;-76
2023/09/24 06:33:38;;;;;;;;;17.75;17.00;;;;;10.47;100.00;102305.56;5087032;27;45359;-77
2023/09/24 06:36:04;;;;;;;;;16.33;13.00;;;;;10.55;100.00;102320.34;5086922;27;45443;-77
2023/09/24 06:38:30;;;;;;;;;18.00;15.00;;;;;10.59;100.00;102314.06;5094665;27;45310;-76
2023/09/24 06:41:03;;;;;;;;;20.33;16.33;;;;;10.61;100.00;102311.38;5093382;27;45398;-76
2023/09/24 06:43:29;;;;;;;;;16.00;15.33;;;;;10.58;100.00;102301.75;5080108;27;45524;-76
2023/09/24 06:45:55;;;;;;;;;19.33;18.33;;;;;10.67;100.00;102313.88;5097989;27;45398;-77
2023/09/24 06:48:22;;;;;;;;;17.00;15.33;;;;;10.78;100.00;102311.84;5097161;27;45444;-77
2023/09/24 06:50:48;;;;;;;;;15.00;13.00;;;;;10.81;100.00;102315.31;5096642;27;45290;-76
2023/09/24 06:53:13;;;;;;;;;17.33;15.33;;;;;10.77;100.00;102300.38;5098953;27;45356;-75
2023/09/24 06:55:39;;;;;;;;;15.00;15.00;;;;;10.93;100.00;102322.06;5096467;27;46222;-76
2023/09/24 06:58:04;;;;;;;;;16.00;13.33;;;;;10.91;100.00;102314.16;5100655;27;45399;-76
2023/09/24 07:00:29;;;;;;;;;13.33;10.00;;;;;11.00;100.00;102307.78;5105118;27;45525;-76
2023/09/24 07:02:55;;;;;;;;;15.67;15.00;;;;;10.99;100.00;102293.66;5101255;27;45321;-76
2023/09/24 07:05:20;;;;;;;;;18.33;16.33;;;;;11.09;100.00;102298.75;5098627;27;45325;-76
2023/09/24 07:07:45;;;;;;;;;13.67;11.33;;;;;11.11;100.00;102295.13;5091873;27;45506;-76
2023/09/24 07:10:11;;;;;;;;;14.00;14.00;;;;;11.14;100.00;102284.47;5097809;27;45531;-76
2023/09/24 07:12:36;;;;;;;;;15.33;11.67;;;;;11.39;100.00;102316.47;5082019;27;46261;-76
2023/09/24 07:15:02;;;;;;;;;58.00;48.25;;;;;11.43;100.00;102308.41;5096378;27;45373;-76
2023/09/24 07:17:27;;;;;;;;;24.50;22.75;;;;;11.48;100.00;102308.31;5088994;27;45347;-76
2023/09/24 07:19:53;;;;;;;;;52.25;44.00;;;;;11.56;100.00;102300.13;5093211;27;45243;-76
2023/09/24 07:22:24;;;;;;;;;32.75;29.75;;;;;11.72;100.00;102314.72;5092242;27;45441;-76
2023/09/24 07:24:50;;;;;;;;;20.00;16.00;;;;;11.82;100.00;102322.38;5103486;27;45380;-76
2023/09/24 07:27:15;;;;;;;;;12.67;11.67;;;;;11.79;100.00;102300.38;5112506;27;45328;-76
2023/09/24 07:29:41;;;;;;;;;34.25;33.00;;;;;11.96;100.00;102317.56;5095293;27;45459;-77
2023/09/24 07:32:06;;;;;;;;;13.33;12.00;;;;;12.06;100.00;102322.59;5105854;27;47088;-77
2023/09/24 07:34:31;;;;;;;;;28.25;26.75;;;;;12.17;100.00;102320.50;5098138;27;45550;-77
2023/09/24 07:36:57;;;;;;;;;29.25;28.25;;;;;12.22;100.00;102307.97;5105418;27;45918;-77
2023/09/24 07:39:22;;;;;;;;;18.33;12.00;;;;;12.35;100.00;102312.00;5106431;27;53355;-76
2023/09/24 07:41:49;;;;;;;;;5.67;5.67;;;;;12.40;100.00;102315.38;5105814;27;45259;-77
2023/09/24 07:44:15;;;;;;;;;7.67;7.00;;;;;12.53;100.00;102327.38;5105204;27;45277;-77
2023/09/24 07:46:40;;;;;;;;;5.67;5.00;;;;;12.58;100.00;102324.56;5094279;27;45242;-77
2023/09/24 07:49:05;;;;;;;;;7.67;4.67;;;;;12.67;100.00;102330.44;5091054;27;49454;-76
2023/09/24 07:51:31;;;;;;;;;8.67;6.00;;;;;12.73;100.00;102324.09;5103569;27;45253;-77
2023/09/24 07:53:56;;;;;;;;;6.33;5.00;;;;;12.73;100.00;102308.16;5098765;27;45548;-76
2023/09/24 07:56:22;;;;;;;;;7.67;6.00;;;;;12.83;100.00;102314.88;5109067;27;45900;-77
2023/09/24 07:58:47;;;;;;;;;10.00;6.33;;;;;12.96;100.00;102326.84;5111241;27;44747;-77
2023/09/24 08:01:14;;;;;;;;;9.00;6.00;;;;;13.00;100.00;102326.69;5114874;27;45433;-77
2023/09/24 08:03:41;;;;;;;;;6.33;6.33;;;;;13.09;100.00;102316.75;5105249;27;45638;-77
2023/09/24 08:06:07;;;;;;;;;9.33;5.33;;;;;13.10;100.00;102303.38;5118922;27;45285;-77
2023/09/24 08:08:34;;;;;;;;;6.00;6.00;;;;;13.27;100.00;102318.75;5106642;27;44749;-76
2023/09/24 08:11:00;;;;;;;;;5.00;4.00;;;;;13.34;100.00;102312.31;5109735;27;45303;-77
2023/09/24 08:13:25;;;;;;;;;7.67;4.00;;;;;13.44;100.00;102319.06;5116907;27;44678;-77
2023/09/24 08:15:51;;;;;;;;;5.00;4.33;;;;;13.57;100.00;102331.00;5103312;27;45182;-77
2023/09/24 08:18:17;;;;;;;;;5.00;5.00;;;;;13.64;100.00;102329.88;5103178;27;45565;-77
2023/09/24 08:20:44;;;;;;;;;6.00;4.00;;;;;13.79;100.00;102331.09;5115825;27;45307;-77
2023/09/24 08:23:09;;;;;;;;;6.67;3.67;;;;;13.83;100.00;102312.31;5116580;27;45438;-76
2023/09/24 08:25:35;;;;;;;;;3.67;3.67;;;;;14.01;100.00;102321.41;5100434;27;45301;-77
2023/09/24 08:28:02;;;;;;;;;6.33;4.00;;;;;14.09;100.00;102312.22;5100200;27;45579;-77
2023/09/24 08:30:31;;;;;;;;;4.00;4.00;;;;;14.24;100.00;102317.88;5102856;27;46101;-76
2023/09/24 08:32:57;;;;;;;;;3.67;3.67;;;;;14.45;100.00;102327.72;5096249;27;45267;-76
2023/09/24 08:35:23;;;;;;;;;7.00;4.33;;;;;14.46;100.00;102310.84;5089670;27;45594;-76
2023/09/24 08:37:49;;;;;;;;;2.33;2.33;;;;;14.71;100.00;102324.03;5084320;27;45359;-78
2023/09/24 08:40:18;;;;;;;;;3.33;2.00;;;;;14.95;100.00;102333.72;5098010;27;45448;-76
2023/09/24 08:42:49;;;;;;;;;5.00;4.00;;;;;15.09;93.80;102329.53;5082930;27;45481;-76
2023/09/24 08:45:18;;;;;;;;;4.00;4.00;;;;;15.28;94.37;102334.94;5083416;27;45361;-76
2023/09/24 08:47:44;;;;;;;;;3.00;3.00;;;;;15.43;94.77;102338.78;5083594;27;45529;-76
2023/09/24 08:50:10;;;;;;;;;3.33;3.33;;;;;15.56;95.49;102334.69;5091734;27;46099;-76
2023/09/24 08:52:40;;;;;;;;;3.00;3.00;;;;;15.70;93.28;102320.75;5094251;27;45244;-75
2023/09/24 08:55:10;;;;;;;;;3.00;3.00;;;;;15.81;90.38;102313.13;5097308;27;45486;-75
2023/09/24 08:57:37;;;;;;;;;2.33;2.00;;;;;15.98;93.53;102326.56;5092864;27;45476;-75
2023/09/24 09:00:09;;;;;;;;;6.67;3.67;;;;;16.06;90.23;102309.28;5090602;27;45611;-75
2023/09/24 09:02:34;;;;;;;;;2.00;1.67;;;;;16.27;86.04;102310.06;5101200;27;45484;-76
2023/09/24 09:04:59;;;;;;;;;3.00;1.67;;;;;16.23;87.86;102278.28;5091095;27;45568;-75
2023/09/24 09:07:25;;;;;;;;;5.00;3.33;;;;;16.47;85.46;102299.31;5098615;27;45441;-75
2023/09/24 09:09:55;;;;;;;;;4.00;4.00;;;;;16.59;87.40;102301.44;5105101;27;47436;-75
2023/09/24 09:12:22;;;;;;;;;4.00;4.00;;;;;16.69;81.11;102293.00;5089040;27;45341;-75
2023/09/24 09:14:47;;;;;;;;;4.33;3.33;;;;;16.83;82.11;102303.84;5100745;27;45447;-75
2023/09/24 09:17:12;;;;;;;;;3.00;3.00;;;;;16.81;77.00;102285.25;5099564;27;45282;-75
2023/09/24 09:19:52;;;;;;;;;8.33;3.33;;;;;17.05;77.49;102299.16;5086453;27;54454;-75
2023/09/24 09:22:21;;;;;;;;;4.00;3.00;;;;;17.17;80.58;102304.78;5093161;27;45385;-75
2023/09/24 09:24:49;;;;;;;;;1.67;1.67;;;;;17.21;77.12;102301.94;5089826;27;45339;-75
2023/09/24 09:27:15;;;;;;;;;4.00;3.00;;;;;17.36;76.68;102298.47;5093513;27;45299;-73
2023/09/24 09:29:40;;;;;;;;;4.33;4.00;;;;;17.47;76.39;102304.16;5082235;27;46228;-73
2023/09/24 09:32:06;;;;;;;;;4.00;4.00;;;;;17.49;78.96;102294.22;5100486;27;45393;-73
2023/09/24 09:34:32;;;;;;;;;5.67;3.33;;;;;17.57;75.65;102303.59;5093878;27;45549;-73
2023/09/24 09:37:16;;;;;;;;;2.33;2.33;;;;;17.61;75.03;102301.63;5082323;27;45468;-72
2023/09/24 09:39:42;;;;;;;;;2.67;2.67;;;;;17.66;72.58;102296.91;5083072;27;45648;-72
2023/09/24 09:42:10;;;;;;;;;2.33;2.00;;;;;17.71;74.57;102300.19;5091029;27;45400;-72
2023/09/24 09:44:37;;;;;;;;;2.00;2.00;;;;;17.70;75.48;102288.63;5089111;27;45504;-73
2023/09/24 09:47:07;;;;;;;;;2.00;1.67;;;;;17.78;71.00;102285.56;5092056;27;45448;-75
2023/09/24 09:49:34;;;;;;;;;3.67;3.67;;;;;17.80;71.86;102291.66;5099967;27;47660;-74
2023/09/24 09:52:03;;;;;;;;;2.00;2.00;;;;;17.85;73.14;102291.44;5099102;27;45477;-74
2023/09/24 09:54:36;;;;;;;;;3.00;2.00;;;;;17.85;71.50;102267.34;5081032;27;45454;-74
2023/09/24 09:57:04;;;;;;;;;4.67;3.67;;;;;17.94;70.87;102288.25;5092091;27;45276;-73
2023/09/24 09:59:33;;;;;;;;;1.33;1.33;;;;;17.99;72.82;102278.19;5083112;27;45454;-75
2023/09/24 10:02:01;;;;;;;;;3.00;2.00;;;;;18.04;70.75;102279.66;5051480;27;45545;-74
2023/09/24 10:04:29;;;;;;;;;3.33;2.00;;;;;18.11;70.40;102272.13;5089690;27;45565;-74
2023/09/24 10:06:55;;;;;;;;;3.00;3.00;;;;;18.12;67.52;102271.19;5097549;27;45662;-75
2023/09/24 10:09:26;;;;;;;;;3.00;1.67;;;;;18.08;66.96;102265.16;5107988;27;47290;-72
2023/09/24 10:11:53;;;;;;;;;0.00;0.00;;;;;18.09;70.68;102264.22;5093302;27;45421;-75
2023/09/24 10:14:48;;;;;;;;;3.00;2.00;;;;;18.11;71.58;102256.94;5095311;27;45410;-75
2023/09/24 10:17:16;;;;;;;;;2.00;1.33;;;;;18.14;70.26;102254.09;5096648;27;45551;-75
2023/09/24 10:19:54;;;;;;;;;3.00;0.67;;;;;18.14;66.85;102253.22;5094560;27;45589;-74
2023/09/24 10:22:27;;;;;;;;;3.00;2.00;;;;;18.18;68.55;102254.78;5094915;27;45445;-75
2023/09/24 10:24:52;;;;;;;;;1.00;0.67;;;;;18.18;67.58;102249.44;5079477;27;45462;-74
2023/09/24 10:27:59;;;;;;;;;1.00;1.00;;;;;18.21;68.82;102238.53;5098614;27;45358;-75
2023/09/24 10:30:25;;;;;;;;;1.33;1.33;;;;;18.17;63.81;102240.53;5087843;27;45699;-75
2023/09/24 10:32:50;;;;;;;;;1.00;1.00;;;;;18.18;64.52;102228.88;5097706;27;45414;-75
2023/09/24 10:35:17;;;;;;;;;0.67;0.67;;;;;18.19;64.56;102232.44;5094048;27;45446;-75
2023/09/24 10:37:58;;;;;;;;;2.00;2.00;;;;;18.22;65.20;102233.09;5081799;27;45295;-75
2023/09/24 10:40:26;;;;;;;;;0.67;0.67;;;;;18.26;63.45;102231.09;5097513;27;46368;-74
2023/09/24 10:43:10;;;;;;;;;1.67;1.67;;;;;18.20;60.42;102212.72;5105051;27;45392;-75
2023/09/24 10:45:35;;;;;;;;;2.67;1.67;;;;;18.26;60.14;102222.22;5097218;27;45400;-75
2023/09/24 10:48:02;;;;;;;;;3.00;1.00;;;;;18.32;63.46;102227.25;5103485;27;45416;-74
2023/09/24 10:50:28;;;;;;;;;3.67;2.00;;;;;18.34;63.67;102207.44;5074622;27;47052;-75
2023/09/24 10:52:59;;;;;;;;;1.33;1.33;;;;;18.39;63.46;102212.53;5088811;27;45216;-75
2023/09/24 10:55:28;;;;;;;;;2.33;1.67;;;;;18.43;65.05;102206.03;5095333;27;45541;-75
2023/09/24 10:57:55;;;;;;;;;4.67;3.00;;;;;18.47;63.59;102218.31;5087158;27;45375;-75
2023/09/24 11:00:22;;;;;;;;;4.00;3.00;;;;;18.50;64.99;102208.31;5104723;27;46906;-75
2023/09/24 11:03:02;;;;;;;;;1.67;1.67;;;;;18.53;65.96;102207.28;5087149;27;45376;-74
2023/09/24 11:05:47;;;;;;;;;2.00;1.00;;;;;18.55;64.45;102200.88;5100929;27;45313;-74